sensor_id;sensor_type;location;lat;lon;timestamp;P1;durP1;ratioP1;P2;durP2;ratioP2
38427;SDS011;24211;49.980;19.776;2024-01-07T00:00:13;18.30;;;7.85;;
38427;SDS011;24211;49.980;19.776;2024-01-07T00:03:04;15.93;;;7.68;;
38427;SDS011;24211;49.980;19.776;2024-01-07T00:05:32;17.73;;;8.10;;
38427;SDS011;24211;49.980;19.776;2024-01-07T00:08:03;19.47;;;8.00;;
38427;SDS011;24211;49.980;19.776;2024-01-07T00:10:33;19.80;;;8.83;;
38427;SDS011;24211;49.980;19.776;2024-01-07T00:13:01;15.90;;;7.85;;
38427;SDS011;24211;49.980;19.776;2024-01-07T00:15:29;17.00;;;7.87;;
38427;SDS011;24211;49.980;19.776;2024-01-07T00:17:57;16.88;;;7.68;;
38427;SDS011;24211;49.980;19.776;2024-01-07T00:20:24;17.30;;;7.80;;
38427;SDS011;24211;49.980;19.776;2024-01-07T00:25:43;18.02;;;8.25;;
38427;SDS011;24211;49.980;19.776;2024-01-07T00:28:10;17.97;;;7.70;;
38427;SDS011;24211;49.980;19.776;2024-01-07T00:30:38;15.73;;;6.60;;
38427;SDS011;24211;49.980;19.776;2024-01-07T00:33:05;17.67;;;8.03;;
38427;SDS011;24211;49.980;19.776;2024-01-07T00:38:26;14.13;;;6.25;;
38427;SDS011;24211;49.980;19.776;2024-01-07T00:40:53;17.17;;;7.38;;
38427;SDS011;24211;49.980;19.776;2024-01-07T00:43:20;15.30;;;7.53;;
38427;SDS011;24211;49.980;19.776;2024-01-07T00:48:41;13.88;;;6.22;;
38427;SDS011;24211;49.980;19.776;2024-01-07T00:51:08;10.68;;;5.10;;
38427;SDS011;24211;49.980;19.776;2024-01-07T00:53:38;12.35;;;5.40;;
38427;SDS011;24211;49.980;19.776;2024-01-07T00:56:06;11.77;;;5.95;;
38427;SDS011;24211;49.980;19.776;2024-01-07T00:58:35;14.05;;;7.22;;
38427;SDS011;24211;49.980;19.776;2024-01-07T01:04:32;14.45;;;7.18;;
38427;SDS011;24211;49.980;19.776;2024-01-07T01:07:14;14.55;;;6.63;;
38427;SDS011;24211;49.980;19.776;2024-01-07T01:09:43;10.07;;;4.90;;
38427;SDS011;24211;49.980;19.776;2024-01-07T01:12:17;10.30;;;4.32;;
38427;SDS011;24211;49.980;19.776;2024-01-07T01:18:41;11.05;;;4.90;;
38427;SDS011;24211;49.980;19.776;2024-01-07T01:21:09;15.27;;;7.00;;
38427;SDS011;24211;49.980;19.776;2024-01-07T01:23:36;11.98;;;5.80;;
38427;SDS011;24211;49.980;19.776;2024-01-07T01:26:03;16.77;;;7.32;;
38427;SDS011;24211;49.980;19.776;2024-01-07T01:28:30;14.48;;;7.18;;
38427;SDS011;24211;49.980;19.776;2024-01-07T01:37:13;16.40;;;7.28;;
38427;SDS011;24211;49.980;19.776;2024-01-07T01:39:40;14.97;;;7.33;;
38427;SDS011;24211;49.980;19.776;2024-01-07T01:42:08;16.03;;;7.17;;
38427;SDS011;24211;49.980;19.776;2024-01-07T01:44:35;12.43;;;5.67;;
38427;SDS011;24211;49.980;19.776;2024-01-07T01:47:13;17.60;;;7.77;;
38427;SDS011;24211;49.980;19.776;2024-01-07T01:54:14;15.43;;;6.60;;
38427;SDS011;24211;49.980;19.776;2024-01-07T01:56:41;10.90;;;5.10;;
38427;SDS011;24211;49.980;19.776;2024-01-07T02:02:54;14.77;;;6.22;;
38427;SDS011;24211;49.980;19.776;2024-01-07T02:05:22;13.73;;;6.20;;
38427;SDS011;24211;49.980;19.776;2024-01-07T02:07:49;14.93;;;6.57;;
38427;SDS011;24211;49.980;19.776;2024-01-07T02:10:19;13.10;;;6.40;;
38427;SDS011;24211;49.980;19.776;2024-01-07T02:13:17;13.83;;;6.40;;
38427;SDS011;24211;49.980;19.776;2024-01-07T02:15:54;12.13;;;5.60;;
38427;SDS011;24211;49.980;19.776;2024-01-07T02:18:22;21.90;;;7.10;;
38427;SDS011;24211;49.980;19.776;2024-01-07T02:20:50;15.97;;;7.30;;
38427;SDS011;24211;49.980;19.776;2024-01-07T02:23:17;16.73;;;7.23;;
38427;SDS011;24211;49.980;19.776;2024-01-07T02:25:44;17.57;;;6.83;;
38427;SDS011;24211;49.980;19.776;2024-01-07T02:28:20;15.27;;;6.83;;
38427;SDS011;24211;49.980;19.776;2024-01-07T02:34:20;13.47;;;6.47;;
38427;SDS011;24211;49.980;19.776;2024-01-07T02:36:48;15.23;;;6.23;;
38427;SDS011;24211;49.980;19.776;2024-01-07T02:39:19;15.70;;;6.77;;
38427;SDS011;24211;49.980;19.776;2024-01-07T02:41:46;13.93;;;6.20;;
38427;SDS011;24211;49.980;19.776;2024-01-07T02:44:29;10.00;;;4.40;;
38427;SDS011;24211;49.980;19.776;2024-01-07T02:46:56;11.85;;;5.68;;
38427;SDS011;24211;49.980;19.776;2024-01-07T02:49:24;12.13;;;5.47;;
38427;SDS011;24211;49.980;19.776;2024-01-07T02:51:54;12.00;;;5.57;;
38427;SDS011;24211;49.980;19.776;2024-01-07T02:54:23;13.30;;;6.13;;
38427;SDS011;24211;49.980;19.776;2024-01-07T02:59:47;12.97;;;5.60;;
38427;SDS011;24211;49.980;19.776;2024-01-07T03:02:47;12.97;;;5.50;;
38427;SDS011;24211;49.980;19.776;2024-01-07T03:05:15;11.77;;;4.70;;
38427;SDS011;24211;49.980;19.776;2024-01-07T03:07:53;11.75;;;5.25;;
38427;SDS011;24211;49.980;19.776;2024-01-07T03:10:41;12.07;;;4.95;;
38427;SDS011;24211;49.980;19.776;2024-01-07T03:13:08;9.73;;;4.37;;
38427;SDS011;24211;49.980;19.776;2024-01-07T03:15:36;10.47;;;4.83;;
38427;SDS011;24211;49.980;19.776;2024-01-07T03:18:03;13.93;;;5.50;;
38427;SDS011;24211;49.980;19.776;2024-01-07T03:20:33;11.80;;;4.65;;
38427;SDS011;24211;49.980;19.776;2024-01-07T03:23:01;11.73;;;5.00;;
38427;SDS011;24211;49.980;19.776;2024-01-07T03:28:25;22.35;;;4.75;;
38427;SDS011;24211;49.980;19.776;2024-01-07T03:30:52;12.03;;;5.33;;
38427;SDS011;24211;49.980;19.776;2024-01-07T03:39:52;9.85;;;4.32;;
38427;SDS011;24211;49.980;19.776;2024-01-07T03:42:20;11.02;;;4.90;;
38427;SDS011;24211;49.980;19.776;2024-01-07T03:44:47;11.35;;;4.65;;
38427;SDS011;24211;49.980;19.776;2024-01-07T03:47:24;8.75;;;3.97;;
38427;SDS011;24211;49.980;19.776;2024-01-07T03:50:20;10.10;;;4.28;;
38427;SDS011;24211;49.980;19.776;2024-01-07T03:52:49;10.02;;;4.50;;
38427;SDS011;24211;49.980;19.776;2024-01-07T03:55:22;8.60;;;4.38;;
38427;SDS011;24211;49.980;19.776;2024-01-07T04:00:21;8.82;;;3.40;;
38427;SDS011;24211;49.980;19.776;2024-01-07T04:02:58;9.70;;;4.13;;
38427;SDS011;24211;49.980;19.776;2024-01-07T04:05:26;10.45;;;4.00;;
38427;SDS011;24211;49.980;19.776;2024-01-07T04:08:00;8.55;;;3.72;;
38427;SDS011;24211;49.980;19.776;2024-01-07T04:10:42;8.07;;;3.65;;
38427;SDS011;24211;49.980;19.776;2024-01-07T04:13:09;8.25;;;3.90;;
38427;SDS011;24211;49.980;19.776;2024-01-07T04:15:49;7.22;;;3.47;;
38427;SDS011;24211;49.980;19.776;2024-01-07T04:18:16;9.45;;;3.78;;
38427;SDS011;24211;49.980;19.776;2024-01-07T04:23:46;8.27;;;3.53;;
38427;SDS011;24211;49.980;19.776;2024-01-07T04:29:08;7.90;;;3.25;;
38427;SDS011;24211;49.980;19.776;2024-01-07T04:31:36;9.30;;;4.30;;
38427;SDS011;24211;49.980;19.776;2024-01-07T04:34:19;9.65;;;4.03;;
38427;SDS011;24211;49.980;19.776;2024-01-07T04:40:57;6.47;;;2.70;;
38427;SDS011;24211;49.980;19.776;2024-01-07T04:47:32;7.80;;;3.30;;
38427;SDS011;24211;49.980;19.776;2024-01-07T04:50:22;8.57;;;3.60;;
38427;SDS011;24211;49.980;19.776;2024-01-07T04:52:58;9.00;;;4.20;;
38427;SDS011;24211;49.980;19.776;2024-01-07T04:55:25;7.10;;;2.55;;
38427;SDS011;24211;49.980;19.776;2024-01-07T05:01:19;8.17;;;3.63;;
38427;SDS011;24211;49.980;19.776;2024-01-07T05:03:47;7.13;;;2.83;;
38427;SDS011;24211;49.980;19.776;2024-01-07T05:06:17;8.93;;;3.47;;
38427;SDS011;24211;49.980;19.776;2024-01-07T05:12:28;7.60;;;3.35;;
38427;SDS011;24211;49.980;19.776;2024-01-07T05:18:21;6.43;;;2.72;;
38427;SDS011;24211;49.980;19.776;2024-01-07T05:20:51;7.53;;;3.30;;
38427;SDS011;24211;49.980;19.776;2024-01-07T05:24:00;8.07;;;3.70;;
38427;SDS011;24211;49.980;19.776;2024-01-07T05:26:46;8.13;;;3.70;;
38427;SDS011;24211;49.980;19.776;2024-01-07T05:29:13;8.98;;;4.00;;
38427;SDS011;24211;49.980;19.776;2024-01-07T05:31:41;8.85;;;3.97;;
38427;SDS011;24211;49.980;19.776;2024-01-07T05:37:02;6.05;;;2.60;;
38427;SDS011;24211;49.980;19.776;2024-01-07T05:50:47;10.70;;;3.88;;
38427;SDS011;24211;49.980;19.776;2024-01-07T05:53:16;6.00;;;2.40;;
38427;SDS011;24211;49.980;19.776;2024-01-07T05:55:46;9.13;;;4.03;;
38427;SDS011;24211;49.980;19.776;2024-01-07T05:58:13;7.75;;;3.47;;
38427;SDS011;24211;49.980;19.776;2024-01-07T06:00:40;7.28;;;3.35;;
38427;SDS011;24211;49.980;19.776;2024-01-07T06:03:22;8.38;;;3.83;;
38427;SDS011;24211;49.980;19.776;2024-01-07T06:06:04;7.03;;;3.08;;
38427;SDS011;24211;49.980;19.776;2024-01-07T06:08:33;9.45;;;4.45;;
38427;SDS011;24211;49.980;19.776;2024-01-07T06:11:03;6.72;;;3.10;;
38427;SDS011;24211;49.980;19.776;2024-01-07T06:13:30;9.07;;;4.20;;
38427;SDS011;24211;49.980;19.776;2024-01-07T06:15:57;7.47;;;3.47;;
38427;SDS011;24211;49.980;19.776;2024-01-07T06:18:25;8.52;;;3.38;;
38427;SDS011;24211;49.980;19.776;2024-01-07T06:20:52;9.55;;;4.88;;
38427;SDS011;24211;49.980;19.776;2024-01-07T06:23:20;10.02;;;3.40;;
38427;SDS011;24211;49.980;19.776;2024-01-07T06:25:47;8.52;;;3.22;;
38427;SDS011;24211;49.980;19.776;2024-01-07T06:28:36;8.38;;;3.63;;
38427;SDS011;24211;49.980;19.776;2024-01-07T06:31:05;11.70;;;4.88;;
38427;SDS011;24211;49.980;19.776;2024-01-07T06:33:33;10.85;;;4.68;;
38427;SDS011;24211;49.980;19.776;2024-01-07T06:36:01;8.25;;;4.07;;
38427;SDS011;24211;49.980;19.776;2024-01-07T06:38:28;7.88;;;3.42;;
38427;SDS011;24211;49.980;19.776;2024-01-07T06:40:58;7.80;;;3.40;;
38427;SDS011;24211;49.980;19.776;2024-01-07T06:43:30;7.25;;;3.13;;
38427;SDS011;24211;49.980;19.776;2024-01-07T06:45:58;7.45;;;3.40;;
38427;SDS011;24211;49.980;19.776;2024-01-07T06:48:27;10.77;;;4.68;;
38427;SDS011;24211;49.980;19.776;2024-01-07T06:50:55;9.82;;;4.82;;
38427;SDS011;24211;49.980;19.776;2024-01-07T06:53:23;7.32;;;3.50;;
38427;SDS011;24211;49.980;19.776;2024-01-07T06:55:51;11.07;;;4.97;;
38427;SDS011;24211;49.980;19.776;2024-01-07T06:58:18;9.00;;;4.10;;
38427;SDS011;24211;49.980;19.776;2024-01-07T07:00:46;7.05;;;3.20;;
38427;SDS011;24211;49.980;19.776;2024-01-07T07:03:13;10.35;;;4.45;;
38427;SDS011;24211;49.980;19.776;2024-01-07T07:05:40;8.77;;;4.30;;
38427;SDS011;24211;49.980;19.776;2024-01-07T07:08:08;7.32;;;3.50;;
38427;SDS011;24211;49.980;19.776;2024-01-07T07:10:35;8.95;;;4.85;;
38427;SDS011;24211;49.980;19.776;2024-01-07T07:13:03;7.05;;;3.58;;
38427;SDS011;24211;49.980;19.776;2024-01-07T07:15:31;10.27;;;4.68;;
38427;SDS011;24211;49.980;19.776;2024-01-07T07:17:58;7.68;;;3.17;;
38427;SDS011;24211;49.980;19.776;2024-01-07T07:20:26;9.68;;;4.55;;
38427;SDS011;24211;49.980;19.776;2024-01-07T07:22:53;6.43;;;3.10;;
38427;SDS011;24211;49.980;19.776;2024-01-07T07:25:20;6.50;;;3.22;;
38427;SDS011;24211;49.980;19.776;2024-01-07T07:27:48;7.95;;;3.35;;
38427;SDS011;24211;49.980;19.776;2024-01-07T07:30:15;7.68;;;3.30;;
38427;SDS011;24211;49.980;19.776;2024-01-07T07:32:43;7.82;;;3.10;;
38427;SDS011;24211;49.980;19.776;2024-01-07T07:35:11;7.20;;;2.67;;
38427;SDS011;24211;49.980;19.776;2024-01-07T07:37:39;7.32;;;3.35;;
38427;SDS011;24211;49.980;19.776;2024-01-07T07:40:06;8.05;;;3.65;;
38427;SDS011;24211;49.980;19.776;2024-01-07T07:42:34;7.22;;;3.40;;
38427;SDS011;24211;49.980;19.776;2024-01-07T07:45:01;6.35;;;3.10;;
38427;SDS011;24211;49.980;19.776;2024-01-07T07:47:29;6.68;;;3.15;;
38427;SDS011;24211;49.980;19.776;2024-01-07T07:49:58;8.68;;;4.32;;
38427;SDS011;24211;49.980;19.776;2024-01-07T07:52:27;6.10;;;3.00;;
38427;SDS011;24211;49.980;19.776;2024-01-07T07:54:55;6.78;;;2.80;;
38427;SDS011;24211;49.980;19.776;2024-01-07T07:57:22;6.40;;;2.95;;
38427;SDS011;24211;49.980;19.776;2024-01-07T07:59:51;10.48;;;4.35;;
38427;SDS011;24211;49.980;19.776;2024-01-07T08:02:24;10.93;;;4.35;;
38427;SDS011;24211;49.980;19.776;2024-01-07T08:04:52;8.20;;;3.33;;
38427;SDS011;24211;49.980;19.776;2024-01-07T08:07:19;6.25;;;3.00;;
38427;SDS011;24211;49.980;19.776;2024-01-07T08:09:47;7.07;;;3.00;;
38427;SDS011;24211;49.980;19.776;2024-01-07T08:12:15;6.22;;;2.97;;
38427;SDS011;24211;49.980;19.776;2024-01-07T08:14:45;7.97;;;3.47;;
38427;SDS011;24211;49.980;19.776;2024-01-07T08:17:13;6.32;;;3.10;;
38427;SDS011;24211;49.980;19.776;2024-01-07T08:19:41;7.07;;;2.83;;
38427;SDS011;24211;49.980;19.776;2024-01-07T08:22:14;6.35;;;3.10;;
38427;SDS011;24211;49.980;19.776;2024-01-07T08:24:41;7.57;;;3.42;;
38427;SDS011;24211;49.980;19.776;2024-01-07T08:27:09;6.43;;;2.97;;
38427;SDS011;24211;49.980;19.776;2024-01-07T08:29:38;8.25;;;4.03;;
38427;SDS011;24211;49.980;19.776;2024-01-07T08:32:44;8.95;;;4.10;;
38427;SDS011;24211;49.980;19.776;2024-01-07T08:35:12;7.13;;;3.28;;
38427;SDS011;24211;49.980;19.776;2024-01-07T08:37:46;8.65;;;3.45;;
38427;SDS011;24211;49.980;19.776;2024-01-07T08:40:13;7.72;;;3.30;;
38427;SDS011;24211;49.980;19.776;2024-01-07T08:42:42;7.13;;;3.15;;
38427;SDS011;24211;49.980;19.776;2024-01-07T08:45:09;11.75;;;4.72;;
38427;SDS011;24211;49.980;19.776;2024-01-07T08:47:37;6.93;;;3.10;;
38427;SDS011;24211;49.980;19.776;2024-01-07T08:50:10;10.85;;;4.93;;
38427;SDS011;24211;49.980;19.776;2024-01-07T08:52:39;7.07;;;3.40;;
38427;SDS011;24211;49.980;19.776;2024-01-07T08:55:07;8.10;;;3.95;;
38427;SDS011;24211;49.980;19.776;2024-01-07T08:57:39;6.80;;;3.30;;
38427;SDS011;24211;49.980;19.776;2024-01-07T09:00:06;7.72;;;3.33;;
38427;SDS011;24211;49.980;19.776;2024-01-07T09:02:36;6.97;;;3.28;;
38427;SDS011;24211;49.980;19.776;2024-01-07T09:07:36;9.25;;;4.32;;
38427;SDS011;24211;49.980;19.776;2024-01-07T09:10:28;8.00;;;3.50;;
38427;SDS011;24211;49.980;19.776;2024-01-07T09:12:56;8.63;;;3.92;;
38427;SDS011;24211;49.980;19.776;2024-01-07T09:19:06;9.95;;;5.10;;
38427;SDS011;24211;49.980;19.776;2024-01-07T09:25:17;6.78;;;2.97;;
38427;SDS011;24211;49.980;19.776;2024-01-07T09:27:58;10.55;;;4.45;;
38427;SDS011;24211;49.980;19.776;2024-01-07T09:30:31;13.23;;;5.30;;
38427;SDS011;24211;49.980;19.776;2024-01-07T09:41:58;7.40;;;3.08;;
38427;SDS011;24211;49.980;19.776;2024-01-07T09:44:26;7.50;;;3.45;;
38427;SDS011;24211;49.980;19.776;2024-01-07T09:47:10;8.25;;;3.00;;
38427;SDS011;24211;49.980;19.776;2024-01-07T09:49:41;6.28;;;3.13;;
38427;SDS011;24211;49.980;19.776;2024-01-07T09:56:34;8.13;;;3.35;;
38427;SDS011;24211;49.980;19.776;2024-01-07T09:58:52;6.88;;;3.08;;
38427;SDS011;24211;49.980;19.776;2024-01-07T10:01:20;10.93;;;4.82;;
38427;SDS011;24211;49.980;19.776;2024-01-07T10:03:47;7.60;;;3.30;;
38427;SDS011;24211;49.980;19.776;2024-01-07T10:06:25;8.15;;;3.38;;
38427;SDS011;24211;49.980;19.776;2024-01-07T10:08:52;10.70;;;4.90;;
38427;SDS011;24211;49.980;19.776;2024-01-07T10:11:20;12.82;;;5.10;;
38427;SDS011;24211;49.980;19.776;2024-01-07T10:16:58;12.32;;;5.65;;
38427;SDS011;24211;49.980;19.776;2024-01-07T10:38:35;8.55;;;3.42;;
38427;SDS011;24211;49.980;19.776;2024-01-07T10:41:04;9.07;;;3.60;;
38427;SDS011;24211;49.980;19.776;2024-01-07T10:43:48;9.18;;;3.72;;
38427;SDS011;24211;49.980;19.776;2024-01-07T10:46:16;8.48;;;3.40;;
38427;SDS011;24211;49.980;19.776;2024-01-07T10:48:50;12.35;;;5.63;;
38427;SDS011;24211;49.980;19.776;2024-01-07T10:52:06;9.10;;;3.80;;
38427;SDS011;24211;49.980;19.776;2024-01-07T10:54:52;10.63;;;3.90;;
38427;SDS011;24211;49.980;19.776;2024-01-07T11:00:20;11.02;;;4.10;;
38427;SDS011;24211;49.980;19.776;2024-01-07T11:06:13;10.00;;;4.38;;
38427;SDS011;24211;49.980;19.776;2024-01-07T11:21:23;7.75;;;3.40;;
38427;SDS011;24211;49.980;19.776;2024-01-07T11:23:53;9.63;;;3.60;;
38427;SDS011;24211;49.980;19.776;2024-01-07T11:29:13;7.93;;;3.70;;
38427;SDS011;24211;49.980;19.776;2024-01-07T11:35:13;8.65;;;3.50;;
38427;SDS011;24211;49.980;19.776;2024-01-07T11:37:45;8.80;;;3.65;;
38427;SDS011;24211;49.980;19.776;2024-01-07T11:40:13;10.75;;;5.45;;
38427;SDS011;24211;49.980;19.776;2024-01-07T11:45:34;14.48;;;5.97;;
38427;SDS011;24211;49.980;19.776;2024-01-07T11:48:02;12.27;;;5.13;;
38427;SDS011;24211;49.980;19.776;2024-01-07T11:50:31;11.20;;;4.53;;
38427;SDS011;24211;49.980;19.776;2024-01-07T11:52:59;15.25;;;6.30;;
38427;SDS011;24211;49.980;19.776;2024-01-07T11:59:02;10.85;;;3.97;;
38427;SDS011;24211;49.980;19.776;2024-01-07T12:05:53;10.10;;;4.38;;
38427;SDS011;24211;49.980;19.776;2024-01-07T12:12:01;9.82;;;4.45;;
38427;SDS011;24211;49.980;19.776;2024-01-07T12:15:19;10.15;;;4.15;;
38427;SDS011;24211;49.980;19.776;2024-01-07T12:18:01;9.80;;;4.18;;
38427;SDS011;24211;49.980;19.776;2024-01-07T12:20:37;10.65;;;4.35;;
38427;SDS011;24211;49.980;19.776;2024-01-07T12:26:13;12.60;;;5.85;;
38427;SDS011;24211;49.980;19.776;2024-01-07T12:28:40;9.75;;;4.45;;
38427;SDS011;24211;49.980;19.776;2024-01-07T12:31:09;9.97;;;4.67;;
38427;SDS011;24211;49.980;19.776;2024-01-07T12:33:38;12.73;;;5.18;;
38427;SDS011;24211;49.980;19.776;2024-01-07T12:36:06;15.13;;;6.32;;
38427;SDS011;24211;49.980;19.776;2024-01-07T12:38:37;12.75;;;5.97;;
38427;SDS011;24211;49.980;19.776;2024-01-07T12:41:05;14.38;;;5.40;;
38427;SDS011;24211;49.980;19.776;2024-01-07T12:43:42;12.23;;;4.68;;
38427;SDS011;24211;49.980;19.776;2024-01-07T12:46:43;12.18;;;5.53;;
38427;SDS011;24211;49.980;19.776;2024-01-07T12:49:14;11.00;;;5.20;;
38427;SDS011;24211;49.980;19.776;2024-01-07T12:51:43;10.50;;;4.18;;
38427;SDS011;24211;49.980;19.776;2024-01-07T12:54:10;10.32;;;5.05;;
38427;SDS011;24211;49.980;19.776;2024-01-07T12:56:37;18.75;;;8.20;;
38427;SDS011;24211;49.980;19.776;2024-01-07T12:59:08;10.70;;;4.47;;
38427;SDS011;24211;49.980;19.776;2024-01-07T13:01:42;11.35;;;4.65;;
38427;SDS011;24211;49.980;19.776;2024-01-07T13:04:10;10.55;;;4.35;;
38427;SDS011;24211;49.980;19.776;2024-01-07T13:06:37;13.93;;;5.95;;
38427;SDS011;24211;49.980;19.776;2024-01-07T13:09:06;17.38;;;8.20;;
38427;SDS011;24211;49.980;19.776;2024-01-07T13:11:35;18.33;;;8.50;;
38427;SDS011;24211;49.980;19.776;2024-01-07T13:14:24;13.18;;;5.60;;
38427;SDS011;24211;49.980;19.776;2024-01-07T13:20:15;12.23;;;4.78;;
38427;SDS011;24211;49.980;19.776;2024-01-07T13:23:12;12.87;;;5.43;;
38427;SDS011;24211;49.980;19.776;2024-01-07T13:25:48;13.95;;;5.55;;
38427;SDS011;24211;49.980;19.776;2024-01-07T13:28:16;11.55;;;5.22;;
38427;SDS011;24211;49.980;19.776;2024-01-07T13:30:52;10.95;;;5.13;;
38427;SDS011;24211;49.980;19.776;2024-01-07T13:36:33;11.15;;;4.72;;
38427;SDS011;24211;49.980;19.776;2024-01-07T13:39:00;12.45;;;5.18;;
38427;SDS011;24211;49.980;19.776;2024-01-07T13:41:30;17.83;;;7.90;;
38427;SDS011;24211;49.980;19.776;2024-01-07T13:44:11;13.68;;;5.95;;
38427;SDS011;24211;49.980;19.776;2024-01-07T13:49:13;13.77;;;6.18;;
38427;SDS011;24211;49.980;19.776;2024-01-07T13:51:42;12.80;;;6.28;;
38427;SDS011;24211;49.980;19.776;2024-01-07T13:54:11;13.32;;;6.72;;
38427;SDS011;24211;49.980;19.776;2024-01-07T13:57:05;17.25;;;7.93;;
38427;SDS011;24211;49.980;19.776;2024-01-07T14:02:36;14.38;;;6.53;;
38427;SDS011;24211;49.980;19.776;2024-01-07T14:08:23;12.00;;;5.80;;
38427;SDS011;24211;49.980;19.776;2024-01-07T14:13:44;13.60;;;6.40;;
38427;SDS011;24211;49.980;19.776;2024-01-07T14:16:13;14.80;;;6.50;;
38427;SDS011;24211;49.980;19.776;2024-01-07T14:18:41;23.67;;;10.27;;
38427;SDS011;24211;49.980;19.776;2024-01-07T14:21:12;16.80;;;8.50;;
38427;SDS011;24211;49.980;19.776;2024-01-07T14:31:41;17.00;;;7.57;;
38427;SDS011;24211;49.980;19.776;2024-01-07T14:34:08;18.27;;;7.68;;
38427;SDS011;24211;49.980;19.776;2024-01-07T14:37:02;16.55;;;7.38;;
38427;SDS011;24211;49.980;19.776;2024-01-07T14:39:29;15.27;;;6.78;;
38427;SDS011;24211;49.980;19.776;2024-01-07T14:41:57;22.95;;;9.65;;
38427;SDS011;24211;49.980;19.776;2024-01-07T14:47:19;16.05;;;7.30;;
38427;SDS011;24211;49.980;19.776;2024-01-07T14:49:47;14.33;;;6.60;;
38427;SDS011;24211;49.980;19.776;2024-01-07T14:52:14;15.40;;;7.10;;
38427;SDS011;24211;49.980;19.776;2024-01-07T14:54:41;21.90;;;9.53;;
38427;SDS011;24211;49.980;19.776;2024-01-07T15:03:28;16.80;;;6.60;;
38427;SDS011;24211;49.980;19.776;2024-01-07T15:07:01;15.25;;;6.88;;
38427;SDS011;24211;49.980;19.776;2024-01-07T15:09:28;14.95;;;6.85;;
38427;SDS011;24211;49.980;19.776;2024-01-07T15:12:04;16.50;;;6.90;;
38427;SDS011;24211;49.980;19.776;2024-01-07T15:20:18;13.50;;;6.10;;
38427;SDS011;24211;49.980;19.776;2024-01-07T15:22:59;16.60;;;6.80;;
38427;SDS011;24211;49.980;19.776;2024-01-07T15:25:28;16.37;;;6.73;;
38427;SDS011;24211;49.980;19.776;2024-01-07T15:27:56;13.65;;;6.30;;
38427;SDS011;24211;49.980;19.776;2024-01-07T15:30:24;17.15;;;7.50;;
38427;SDS011;24211;49.980;19.776;2024-01-07T15:32:51;16.27;;;7.70;;
38427;SDS011;24211;49.980;19.776;2024-01-07T15:35:20;14.63;;;6.30;;
38427;SDS011;24211;49.980;19.776;2024-01-07T15:40:41;15.00;;;6.28;;
38427;SDS011;24211;49.980;19.776;2024-01-07T15:46:02;17.33;;;7.22;;
38427;SDS011;24211;49.980;19.776;2024-01-07T15:48:37;16.27;;;6.63;;
38427;SDS011;24211;49.980;19.776;2024-01-07T15:51:05;20.77;;;7.40;;
38427;SDS011;24211;49.980;19.776;2024-01-07T15:53:43;16.10;;;6.38;;
38427;SDS011;24211;49.980;19.776;2024-01-07T15:59:43;16.60;;;7.07;;
38427;SDS011;24211;49.980;19.776;2024-01-07T16:02:55;16.17;;;7.17;;
38427;SDS011;24211;49.980;19.776;2024-01-07T16:05:23;12.13;;;5.90;;
38427;SDS011;24211;49.980;19.776;2024-01-07T16:07:52;14.05;;;5.90;;
38427;SDS011;24211;49.980;19.776;2024-01-07T16:10:19;16.38;;;6.18;;
38427;SDS011;24211;49.980;19.776;2024-01-07T16:12:46;18.40;;;8.67;;
38427;SDS011;24211;49.980;19.776;2024-01-07T16:15:47;12.60;;;5.57;;
38427;SDS011;24211;49.980;19.776;2024-01-07T16:18:15;19.83;;;5.70;;
38427;SDS011;24211;49.980;19.776;2024-01-07T16:20:47;12.75;;;5.95;;
38427;SDS011;24211;49.980;19.776;2024-01-07T16:23:14;13.15;;;5.35;;
38427;SDS011;24211;49.980;19.776;2024-01-07T16:26:14;12.80;;;5.40;;
38427;SDS011;24211;49.980;19.776;2024-01-07T16:28:45;13.65;;;5.43;;
38427;SDS011;24211;49.980;19.776;2024-01-07T16:31:27;13.15;;;5.75;;
38427;SDS011;24211;49.980;19.776;2024-01-07T16:33:56;15.03;;;5.77;;
38427;SDS011;24211;49.980;19.776;2024-01-07T16:36:24;22.50;;;10.60;;
38427;SDS011;24211;49.980;19.776;2024-01-07T16:38:53;18.40;;;8.10;;
38427;SDS011;24211;49.980;19.776;2024-01-07T16:41:53;14.67;;;6.53;;
38427;SDS011;24211;49.980;19.776;2024-01-07T16:44:24;17.65;;;7.60;;
38427;SDS011;24211;49.980;19.776;2024-01-07T16:47:04;16.10;;;6.77;;
38427;SDS011;24211;49.980;19.776;2024-01-07T16:49:35;23.90;;;10.20;;
38427;SDS011;24211;49.980;19.776;2024-01-07T16:52:30;20.50;;;8.87;;
38427;SDS011;24211;49.980;19.776;2024-01-07T16:55:02;15.93;;;6.80;;
38427;SDS011;24211;49.980;19.776;2024-01-07T16:57:29;15.53;;;6.40;;
38427;SDS011;24211;49.980;19.776;2024-01-07T17:00:07;22.57;;;10.37;;
38427;SDS011;24211;49.980;19.776;2024-01-07T17:02:43;19.77;;;9.00;;
38427;SDS011;24211;49.980;19.776;2024-01-07T17:05:11;22.30;;;9.63;;
38427;SDS011;24211;49.980;19.776;2024-01-07T17:07:48;20.93;;;9.70;;
38427;SDS011;24211;49.980;19.776;2024-01-07T17:10:20;24.70;;;11.20;;
38427;SDS011;24211;49.980;19.776;2024-01-07T17:12:48;24.43;;;10.60;;
38427;SDS011;24211;49.980;19.776;2024-01-07T17:15:16;12.60;;;5.80;;
38427;SDS011;24211;49.980;19.776;2024-01-07T17:17:53;16.40;;;6.50;;
38427;SDS011;24211;49.980;19.776;2024-01-07T17:20:26;13.33;;;6.33;;
38427;SDS011;24211;49.980;19.776;2024-01-07T17:22:58;18.00;;;7.47;;
38427;SDS011;24211;49.980;19.776;2024-01-07T17:28:20;17.80;;;7.13;;
38427;SDS011;24211;49.980;19.776;2024-01-07T17:30:47;16.03;;;7.50;;
38427;SDS011;24211;49.980;19.776;2024-01-07T17:33:14;20.90;;;9.33;;
38427;SDS011;24211;49.980;19.776;2024-01-07T17:35:42;23.37;;;9.73;;
38427;SDS011;24211;49.980;19.776;2024-01-07T17:38:09;21.70;;;10.57;;
38427;SDS011;24211;49.980;19.776;2024-01-07T17:40:37;16.60;;;7.27;;
38427;SDS011;24211;49.980;19.776;2024-01-07T17:43:19;22.65;;;10.30;;
38427;SDS011;24211;49.980;19.776;2024-01-07T17:46:07;19.00;;;6.80;;
38427;SDS011;24211;49.980;19.776;2024-01-07T17:51:53;16.97;;;7.23;;
38427;SDS011;24211;49.980;19.776;2024-01-07T17:54:23;17.77;;;6.93;;
38427;SDS011;24211;49.980;19.776;2024-01-07T17:57:05;21.43;;;8.97;;
38427;SDS011;24211;49.980;19.776;2024-01-07T17:59:33;13.57;;;5.90;;
38427;SDS011;24211;49.980;19.776;2024-01-07T18:02:10;16.90;;;6.73;;
38427;SDS011;24211;49.980;19.776;2024-01-07T18:04:39;17.07;;;6.83;;
38427;SDS011;24211;49.980;19.776;2024-01-07T18:07:23;17.23;;;6.70;;
38427;SDS011;24211;49.980;19.776;2024-01-07T18:09:50;16.23;;;6.97;;
38427;SDS011;24211;49.980;19.776;2024-01-07T18:12:19;17.13;;;6.67;;
38427;SDS011;24211;49.980;19.776;2024-01-07T18:18:19;15.52;;;7.30;;
38427;SDS011;24211;49.980;19.776;2024-01-07T18:20:47;15.17;;;6.73;;
38427;SDS011;24211;49.980;19.776;2024-01-07T18:23:15;14.33;;;6.57;;
38427;SDS011;24211;49.980;19.776;2024-01-07T18:25:44;14.43;;;6.40;;
38427;SDS011;24211;49.980;19.776;2024-01-07T18:28:18;12.67;;;5.80;;
38427;SDS011;24211;49.980;19.776;2024-01-07T18:30:45;14.73;;;6.43;;
38427;SDS011;24211;49.980;19.776;2024-01-07T18:33:13;16.33;;;7.37;;
38427;SDS011;24211;49.980;19.776;2024-01-07T18:35:41;20.63;;;8.40;;
38427;SDS011;24211;49.980;19.776;2024-01-07T18:38:13;16.33;;;6.70;;
38427;SDS011;24211;49.980;19.776;2024-01-07T18:40:40;16.17;;;6.70;;
38427;SDS011;24211;49.980;19.776;2024-01-07T18:43:16;18.70;;;7.63;;
38427;SDS011;24211;49.980;19.776;2024-01-07T18:48:39;14.27;;;6.03;;
38427;SDS011;24211;49.980;19.776;2024-01-07T18:51:10;18.60;;;8.10;;